createdAt,value
2019-06-10T00:03:24.520Z,8.20
2019-06-10T00:08:32.804Z,8.70
2019-06-10T00:13:38.090Z,8.53
2019-06-10T00:18:45.825Z,9.07
2019-06-10T00:23:55.279Z,10.17
2019-06-10T00:29:02.743Z,11.80
2019-06-10T00:34:07.879Z,10.80
2019-06-10T00:39:13.561Z,10.03
2019-06-10T00:44:20.731Z,11.63
2019-06-10T00:49:27.130Z,11.20
2019-06-10T00:54:32.403Z,11.40
2019-06-10T00:59:38.461Z,13.73
2019-06-10T01:04:42.100Z,13.60
2019-06-10T01:09:45.801Z,14.70
2019-06-10T01:14:52.226Z,12.13
2019-06-10T01:19:56.013Z,13.20
2019-06-10T01:25:01.579Z,12.47
2019-06-10T01:30:14.269Z,11.10
2019-06-10T01:35:15.809Z,12.07
2019-06-10T01:40:21.773Z,12.40
2019-06-10T01:45:25.675Z,12.10
2019-06-10T01:50:31.238Z,11.93
2019-06-10T01:55:37.249Z,11.10
2019-06-10T02:01:01.296Z,10.90
2019-06-10T02:06:15.239Z,11.40
2019-06-10T02:11:18.782Z,11.80
2019-06-10T02:16:24.063Z,11.40
2019-06-10T02:21:31.024Z,11.50
2019-06-10T02:26:34.281Z,11.67
2019-06-10T02:31:43.864Z,11.63
2019-06-10T02:36:59.337Z,10.47
2019-06-10T02:42:13.704Z,11.20
2019-06-10T02:47:19.184Z,11.90
2019-06-10T02:52:31.519Z,11.20
2019-06-10T02:57:35.375Z,13.90
2019-06-10T03:02:36.463Z,12.47
2019-06-10T03:07:44.344Z,13.80
2019-06-10T03:12:48.130Z,12.60
2019-06-10T03:17:52.151Z,13.67
2019-06-10T03:22:55.963Z,13.77
2019-06-10T03:27:59.608Z,13.40
2019-06-10T03:33:05.026Z,13.00
2019-06-10T03:38:08.629Z,13.10
2019-06-10T03:43:12.341Z,12.60
2019-06-10T03:48:17.090Z,12.40
2019-06-10T03:53:21.936Z,12.20
2019-06-10T03:58:27.993Z,12.20
2019-06-10T04:03:33.952Z,11.17
2019-06-10T04:08:36.890Z,11.70
2019-06-10T04:13:42.845Z,11.97
2019-06-10T04:18:45.873Z,11.70
2019-06-10T04:23:49.512Z,10.40
2019-06-10T04:28:53.175Z,11.40
2019-06-10T04:33:56.746Z,11.77
2019-06-10T04:39:03.007Z,10.67
2019-06-10T04:44:05.739Z,12.00
2019-06-10T04:49:09.361Z,10.67
2019-06-10T04:54:13.464Z,11.10
2019-06-10T04:59:17.370Z,10.40
2019-06-10T05:04:23.585Z,10.53
2019-06-10T05:09:28.775Z,10.93
2019-06-10T05:14:33.355Z,11.63
2019-06-10T05:19:37.060Z,13.67
2019-06-10T05:24:42.485Z,13.03
2019-06-10T05:29:46.199Z,12.20
2019-06-10T05:34:52.647Z,11.47
2019-06-10T05:39:55.273Z,11.30
2019-06-10T05:44:58.900Z,11.37
2019-06-10T05:50:03.338Z,11.03
2019-06-10T05:55:07.587Z,10.70
2019-06-10T06:00:14.813Z,12.00
2019-06-10T06:05:17.656Z,11.80
2019-06-10T06:10:22.310Z,12.00
2019-06-10T06:15:25.909Z,12.10
2019-06-10T06:20:29.530Z,13.00
2019-06-10T06:25:39.016Z,12.50
2019-06-10T06:30:38.718Z,12.10
2019-06-10T06:35:46.058Z,12.97
2019-06-10T06:40:47.775Z,11.80
2019-06-10T06:45:53.129Z,13.37
2019-06-10T06:51:04.427Z,12.40
2019-06-10T06:56:03.557Z,11.70
2019-06-10T07:01:11.088Z,11.17
2019-06-10T07:06:15.235Z,13.77
2019-06-10T07:11:19.233Z,12.57
2019-06-10T07:16:23.254Z,10.80
2019-06-10T07:21:26.898Z,12.00
2019-06-10T07:26:34.129Z,10.90
2019-06-10T07:31:36.963Z,10.80
2019-06-10T07:36:43.550Z,10.63
2019-06-10T07:41:47.858Z,11.37
2019-06-10T07:46:53.031Z,12.67
2019-06-10T07:52:12.033Z,12.50
2019-06-10T07:57:02.884Z,12.33
2019-06-10T08:02:06.532Z,11.87
2019-06-10T08:07:12.385Z,12.20
2019-06-10T08:12:15.714Z,12.50
2019-06-10T08:17:22.255Z,11.63
2019-06-10T08:22:33.266Z,11.37
2019-06-10T08:27:30.311Z,11.73
2019-06-10T08:32:33.943Z,11.20
2019-06-10T08:37:38.064Z,10.53
2019-06-10T08:42:44.168Z,14.20
2019-06-10T08:47:47.741Z,12.30
2019-06-10T08:53:07.313Z,11.93
2019-06-10T08:57:58.340Z,8.10
2019-06-10T09:03:04.114Z,8.63
2019-06-10T09:08:12.797Z,9.20
2019-06-10T09:13:15.950Z,9.40
2019-06-10T09:18:20.053Z,9.10
2019-06-10T09:23:25.614Z,8.87
2019-06-10T09:28:29.550Z,8.70
2019-06-10T09:33:33.492Z,10.90
2019-06-10T09:38:37.416Z,9.30
2019-06-10T09:43:45.379Z,8.87
2019-06-10T09:48:50.314Z,9.20
2019-06-10T09:54:02.061Z,8.27
2019-06-10T09:58:59.395Z,9.20
2019-06-10T10:04:03.170Z,9.90
2019-06-10T10:09:07.559Z,10.00
2019-06-10T10:14:15.793Z,11.80
2019-06-10T10:19:17.528Z,11.47
2019-06-10T10:24:22.994Z,11.10
2019-06-10T10:29:27.571Z,13.17
2019-06-10T10:34:33.346Z,12.47
2019-06-10T10:39:39.040Z,11.50
2019-06-10T10:44:46.248Z,11.63
2019-06-10T10:49:49.116Z,12.70
2019-06-10T10:54:54.319Z,12.90
2019-06-10T10:59:58.429Z,12.87
2019-06-10T11:05:02.123Z,14.77
2019-06-10T11:10:07.936Z,18.80
2019-06-10T11:15:13.787Z,17.53
2019-06-10T11:20:17.633Z,19.37
2019-06-10T11:25:23.219Z,18.30
2019-06-10T11:30:27.464Z,17.57
2019-06-10T11:35:32.024Z,15.87
2019-06-10T11:40:35.726Z,14.50
2019-06-10T11:45:45.717Z,12.77
2019-06-10T11:50:45.198Z,11.50
2019-06-10T11:55:49.517Z,10.97
2019-06-10T12:00:55.891Z,11.30
2019-06-10T12:06:01.082Z,12.03
2019-06-10T12:11:04.142Z,13.70
2019-06-10T12:16:50.812Z,13.50
2019-06-10T12:21:13.509Z,13.17
2019-06-10T12:26:17.543Z,16.50
2019-06-10T12:31:23.185Z,22.80
2019-06-10T12:36:27.080Z,23.90
2019-06-10T12:41:33.127Z,20.33
2019-06-10T12:46:36.931Z,17.57
2019-06-10T12:51:40.692Z,13.70
2019-06-10T12:56:44.407Z,11.60
2019-06-10T13:01:48.427Z,12.70
2019-06-10T13:06:52.893Z,21.20
2019-06-10T13:11:57.749Z,17.17
2019-06-10T13:17:03.018Z,14.87
2019-06-10T13:22:07.609Z,15.90
2019-06-10T13:27:12.321Z,15.30
2019-06-10T13:32:16.017Z,12.60
2019-06-10T13:37:19.693Z,13.77
2019-06-10T13:42:23.432Z,13.10
2019-06-10T13:47:27.120Z,11.90
2019-06-10T13:52:32.124Z,11.23
2019-06-10T13:57:36.049Z,9.23
2019-06-10T14:02:39.850Z,8.17
2019-06-10T14:07:44.298Z,9.17
2019-06-10T14:12:49.093Z,9.30
2019-06-10T14:17:52.987Z,7.60
2019-06-10T14:22:56.605Z,7.30
2019-06-10T14:28:03.176Z,11.57
2019-06-10T14:33:07.446Z,8.67
2019-06-10T14:38:14.340Z,7.20
2019-06-10T14:43:16.971Z,7.70
2019-06-10T14:48:23.278Z,6.70
2019-06-10T14:53:25.988Z,9.20
2019-06-10T14:58:29.618Z,4.80
2019-06-10T15:03:33.285Z,5.00
2019-06-10T15:08:36.983Z,4.60
2019-06-10T15:13:43.304Z,4.53
2019-06-10T15:18:46.788Z,4.30
2019-06-10T15:23:52.316Z,6.90
2019-06-10T15:28:56.003Z,6.47
2019-06-10T15:33:59.932Z,6.90
2019-06-10T15:39:05.059Z,6.00
2019-06-10T15:44:09.684Z,5.40
2019-06-10T15:49:17.543Z,5.20
2019-06-10T15:54:21.513Z,5.80
2019-06-10T15:59:25.861Z,4.90
2019-06-10T16:04:30.002Z,4.80
2019-06-10T16:09:34.593Z,5.53
2019-06-10T16:14:38.271Z,4.37
2019-06-10T16:19:43.168Z,5.03
2019-06-10T16:24:47.022Z,3.40
2019-06-10T16:29:52.903Z,3.63
2019-06-10T16:34:56.242Z,3.57
2019-06-10T16:39:59.859Z,4.03
2019-06-10T16:45:04.644Z,3.70
2019-06-10T16:50:08.516Z,3.67
2019-06-10T16:55:13.181Z,5.10
2019-06-10T17:00:18.395Z,3.63
2019-06-10T17:05:25.198Z,3.70
2019-06-10T17:10:29.547Z,4.10
2019-06-10T17:15:32.829Z,3.87
2019-06-10T17:20:36.573Z,4.50
2019-06-10T17:25:42.727Z,4.20
2019-06-10T17:30:45.703Z,4.27
2019-06-10T17:35:52.312Z,4.60
2019-06-10T17:40:55.139Z,4.47
2019-06-10T17:45:59.082Z,4.20
2019-06-10T17:51:02.978Z,4.33
2019-06-10T17:56:06.824Z,4.67
2019-06-10T18:01:12.764Z,5.50
2019-06-10T18:06:15.732Z,4.60
2019-06-10T18:11:19.491Z,4.83
2019-06-10T18:16:24.480Z,6.00
2019-06-10T18:21:28.432Z,6.60
2019-06-10T18:26:35.891Z,6.20
2019-06-10T18:31:37.394Z,5.67
2019-06-10T18:36:42.712Z,6.50
2019-06-10T18:41:46.537Z,7.07
2019-06-10T18:46:50.399Z,7.60
2019-06-10T18:51:54.142Z,7.30
2019-06-10T18:56:58.000Z,7.87
2019-06-10T19:02:06.075Z,7.73
2019-06-10T19:07:07.038Z,7.50
2019-06-10T19:12:13.257Z,7.67
2019-06-10T19:17:17.477Z,9.10
2019-06-10T19:22:22.544Z,9.63
2019-06-10T19:27:26.844Z,10.13
2019-06-10T19:32:31.653Z,10.47
2019-06-10T19:37:37.757Z,12.40
2019-06-10T19:42:44.507Z,11.83
2019-06-10T19:47:52.345Z,11.20
2019-06-10T19:52:56.451Z,10.43
2019-06-10T19:58:03.680Z,10.60
2019-06-10T20:03:08.266Z,10.67
2019-06-10T20:08:13.699Z,10.80
2019-06-10T20:13:17.476Z,9.20
2019-06-10T20:18:25.423Z,9.63
2019-06-10T20:23:29.350Z,9.47
2019-06-10T20:28:33.485Z,8.90
2019-06-10T20:33:38.853Z,8.50
2019-06-10T20:38:50.678Z,9.60
2019-06-10T20:43:49.611Z,10.10
2019-06-10T20:48:56.007Z,8.83
2019-06-10T20:54:02.654Z,9.27
2019-06-10T20:59:06.623Z,10.57
2019-06-10T21:04:13.179Z,13.43
2019-06-10T21:09:19.336Z,12.70
2019-06-10T21:14:24.603Z,14.40
2019-06-10T21:19:33.099Z,15.00
2019-06-10T21:24:36.954Z,11.10
2019-06-10T21:29:43.478Z,13.50
2019-06-10T21:34:47.723Z,11.33
2019-06-10T21:39:55.458Z,9.90
2019-06-10T21:45:04.131Z,8.97
2019-06-10T21:50:05.194Z,8.20
2019-06-10T21:55:09.029Z,4.13
2019-06-10T22:00:16.130Z,3.83
2019-06-10T22:05:22.356Z,4.03
2019-06-10T22:10:25.341Z,3.63
2019-06-10T22:15:33.149Z,3.87
2019-06-10T22:20:36.134Z,3.07
2019-06-10T22:25:44.584Z,3.40
2019-06-10T22:30:49.230Z,3.40
2019-06-10T22:35:57.435Z,2.70
2019-06-10T22:41:02.976Z,2.70
2019-06-10T22:46:07.397Z,3.00
2019-06-10T22:51:12.659Z,2.80
2019-06-10T22:56:16.353Z,2.87
2019-06-10T23:01:33.627Z,3.20
2019-06-10T23:06:25.261Z,2.77
2019-06-10T23:11:32.351Z,2.67
2019-06-10T23:16:38.827Z,2.93
2019-06-10T23:21:42.948Z,2.70
2019-06-10T23:26:51.560Z,2.77
2019-06-10T23:32:03.471Z,2.50
2019-06-10T23:37:01.900Z,2.70
2019-06-10T23:42:05.548Z,2.80
2019-06-10T23:47:09.495Z,2.40
2019-06-10T23:52:13.134Z,2.40
2019-06-10T23:57:16.795Z,2.80
